createdAt,value
2024-01-15T07:51:10.096Z,55.10
2024-01-15T07:53:39.342Z,60.00
2024-01-15T07:56:07.837Z,56.90
2024-01-15T07:58:36.529Z,51.80
2024-01-15T08:01:05.885Z,55.40
2024-01-15T08:03:34.763Z,57.40
2024-01-15T08:06:07.052Z,54.30
2024-01-15T08:08:35.621Z,53.50
2024-01-15T08:11:04.284Z,54.10
2024-01-15T08:13:32.794Z,55.30
2024-01-15T08:16:01.345Z,54.70
2024-01-15T08:18:30.154Z,48.10
2024-01-15T08:20:58.956Z,51.70
2024-01-15T08:23:32.721Z,56.40
2024-01-15T08:26:03.528Z,48.40
2024-01-15T08:28:32.529Z,50.20
2024-01-15T08:31:02.034Z,48.10
2024-01-15T08:33:31.032Z,51.20
2024-01-15T08:35:59.755Z,47.70
2024-01-15T08:38:28.459Z,48.50
2024-01-15T08:41:00.188Z,50.70
2024-01-15T08:43:29.190Z,42.10
2024-01-15T08:45:58.431Z,47.80
2024-01-15T08:48:28.808Z,44.70
2024-01-15T08:50:58.301Z,45.50
2024-01-15T08:53:29.391Z,66.70
2024-01-15T08:55:57.991Z,75.50
2024-01-15T08:58:26.824Z,74.90
2024-01-15T09:00:57.926Z,66.30
2024-01-15T09:03:26.953Z,73.90
2024-01-15T09:05:56.687Z,74.70
2024-01-15T09:08:26.144Z,68.50
2024-01-15T09:10:54.820Z,63.90
2024-01-15T09:13:26.440Z,60.90
2024-01-15T09:15:55.251Z,65.60
2024-01-15T09:18:26.744Z,70.00
2024-01-15T09:20:56.008Z,72.00
2024-01-15T09:23:29.827Z,74.10
2024-01-15T09:25:58.762Z,61.20
2024-01-15T09:28:29.765Z,59.90
2024-01-15T09:30:58.426Z,61.70
2024-01-15T09:33:28.484Z,70.00
2024-01-15T09:36:05.361Z,66.00
2024-01-15T09:38:34.050Z,63.40
2024-01-15T09:41:02.657Z,64.70
2024-01-15T09:43:31.614Z,66.70
2024-01-15T09:46:00.467Z,62.40
2024-01-15T09:48:29.400Z,61.40
2024-01-15T09:51:02.126Z,63.00
2024-01-15T09:53:31.374Z,69.80
2024-01-15T09:56:00.113Z,71.30
2024-01-15T09:58:31.880Z,69.40
2024-01-15T10:01:05.093Z,60.90
2024-01-15T10:03:35.850Z,66.40
2024-01-15T10:06:09.215Z,70.10
2024-01-15T10:08:41.454Z,57.90
2024-01-15T10:11:10.092Z,52.30
2024-01-15T10:13:41.938Z,58.20
2024-01-15T10:16:10.706Z,61.70
2024-01-15T10:18:41.020Z,69.60
2024-01-15T10:21:10.877Z,61.80
2024-01-15T10:23:39.771Z,61.80
2024-01-15T10:26:08.846Z,58.00
2024-01-15T10:31:39.831Z,64.60
2024-01-15T10:34:17.296Z,49.60
2024-01-15T10:36:58.862Z,46.70
2024-01-15T10:39:31.601Z,43.00
2024-01-15T10:42:00.474Z,36.00
2024-01-15T10:44:32.540Z,35.90
2024-01-15T10:47:02.180Z,33.80
2024-01-15T10:49:35.810Z,29.30
2024-01-15T10:52:05.529Z,28.00
2024-01-15T10:54:38.079Z,30.70
2024-01-15T10:57:11.168Z,32.80
2024-01-15T10:59:40.824Z,23.90
2024-01-15T11:02:10.110Z,33.70
2024-01-15T11:04:39.149Z,29.20
2024-01-15T11:07:09.061Z,22.00
2024-01-15T11:09:38.529Z,24.40
2024-01-15T11:12:15.312Z,30.50
2024-01-15T11:14:48.815Z,26.50
2024-01-15T11:17:19.950Z,25.00
2024-01-15T11:19:54.657Z,23.80
2024-01-15T11:22:35.480Z,23.50
2024-01-15T11:25:24.626Z,27.10
2024-01-15T11:27:56.719Z,23.40
2024-01-15T11:30:29.005Z,24.30
2024-01-15T11:32:58.089Z,29.40
2024-01-15T11:35:52.510Z,21.40
2024-01-15T11:38:33.279Z,24.60
2024-01-15T11:41:03.141Z,24.50
2024-01-15T11:43:34.379Z,24.60
2024-01-15T11:46:05.404Z,27.50
2024-01-15T11:48:46.108Z,29.00
2024-01-15T11:51:23.192Z,32.80
2024-01-15T11:53:59.244Z,29.20
2024-01-15T11:56:28.251Z,30.10
2024-01-15T11:58:57.881Z,30.50
2024-01-15T12:01:26.836Z,28.00
2024-01-15T12:04:00.243Z,28.40
2024-01-15T12:06:29.310Z,32.80
2024-01-15T12:09:10.520Z,32.10
2024-01-15T12:11:45.363Z,32.60
2024-01-15T12:14:17.676Z,29.50
2024-01-15T12:16:46.342Z,28.40
2024-01-15T12:19:16.809Z,27.70
2024-01-15T12:21:46.401Z,33.50
2024-01-15T12:24:15.046Z,29.30
2024-01-15T12:26:43.613Z,28.60
2024-01-15T12:29:13.043Z,29.90
2024-01-15T12:31:41.732Z,31.40
2024-01-15T12:34:10.543Z,36.10
2024-01-15T12:36:39.109Z,33.30
2024-01-15T12:39:12.988Z,34.50
2024-01-15T12:41:41.602Z,34.40
2024-01-15T12:44:10.230Z,33.80
2024-01-15T12:46:38.873Z,25.90
2024-01-15T12:49:09.790Z,27.60
2024-01-15T12:51:43.083Z,31.70
2024-01-15T12:54:11.732Z,35.60
2024-01-15T12:56:40.474Z,31.90
2024-01-15T12:59:09.625Z,31.20
2024-01-15T13:01:38.491Z,29.00
2024-01-15T13:04:10.262Z,27.40
2024-01-15T13:06:38.921Z,33.70
2024-01-15T13:09:07.538Z,52.30
2024-01-15T13:11:36.076Z,41.40
2024-01-15T13:14:04.781Z,37.00
2024-01-15T13:16:33.387Z,104.80
2024-01-15T13:19:02.064Z,34.30
2024-01-15T13:21:31.714Z,35.80
2024-01-15T13:24:00.321Z,29.90
2024-01-15T13:26:29.183Z,32.00
2024-01-15T13:28:57.727Z,30.80
2024-01-15T13:31:26.426Z,33.20
2024-01-15T13:33:57.403Z,30.30
2024-01-15T13:36:27.173Z,32.00
2024-01-15T13:38:56.115Z,31.70
2024-01-15T13:41:28.666Z,32.90
2024-01-15T13:46:30.671Z,32.80
2024-01-15T13:48:59.709Z,39.20
2024-01-15T13:51:28.441Z,33.80
2024-01-15T13:53:57.003Z,36.20
2024-01-15T13:56:25.592Z,38.90
2024-01-15T13:58:54.187Z,34.60
2024-01-15T14:01:22.891Z,34.00
2024-01-15T14:03:51.676Z,40.30
2024-01-15T14:06:20.356Z,38.00
2024-01-15T14:08:48.996Z,36.10
2024-01-15T14:11:17.582Z,37.10
2024-01-15T14:13:46.890Z,33.40
2024-01-15T14:16:18.446Z,37.00
2024-01-15T14:18:54.520Z,33.10
2024-01-15T14:21:23.289Z,36.40
2024-01-15T14:23:52.003Z,37.30
2024-01-15T14:26:20.572Z,37.80
2024-01-15T14:28:51.898Z,67.40
2024-01-15T14:31:22.021Z,60.00
2024-01-15T14:33:50.711Z,53.10
2024-01-15T14:36:19.537Z,57.20
2024-01-15T14:38:50.064Z,55.30
2024-01-15T14:41:18.654Z,64.30
2024-01-15T14:43:49.570Z,53.80
2024-01-15T14:46:18.322Z,54.70
2024-01-15T14:48:47.063Z,56.80
2024-01-15T14:51:15.803Z,48.80
2024-01-15T14:53:45.388Z,41.40
2024-01-15T14:56:17.459Z,35.90
2024-01-15T14:58:47.194Z,31.50
2024-01-15T15:01:16.613Z,29.20
2024-01-15T15:03:45.817Z,28.40
2024-01-15T15:06:19.776Z,23.40
2024-01-15T15:08:51.207Z,25.90
2024-01-15T15:11:19.794Z,26.40
2024-01-15T15:13:50.791Z,24.60
2024-01-15T15:16:19.526Z,24.50
2024-01-15T15:18:48.731Z,29.90
2024-01-15T15:21:17.922Z,25.80
2024-01-15T15:23:46.705Z,23.40
2024-01-15T15:26:15.702Z,24.20
2024-01-15T15:28:44.250Z,22.10
2024-01-15T15:31:13.444Z,22.60
2024-01-15T15:33:43.235Z,21.70
2024-01-15T15:36:15.154Z,19.50
2024-01-15T15:38:43.786Z,22.90
2024-01-15T15:41:13.922Z,23.40
2024-01-15T15:43:42.765Z,23.20
2024-01-15T15:46:11.396Z,27.40
2024-01-15T15:48:40.242Z,27.50
2024-01-15T15:51:09.160Z,31.00
2024-01-15T15:53:37.913Z,31.60
2024-01-15T15:56:08.800Z,32.50
2024-01-15T15:58:41.607Z,31.10
2024-01-15T16:01:10.404Z,27.00
2024-01-15T16:03:39.665Z,30.80
2024-01-15T16:06:08.637Z,29.10
2024-01-15T16:08:40.047Z,26.60
2024-01-15T16:11:09.013Z,23.90
2024-01-15T16:13:39.848Z,23.50
2024-01-15T16:23:10.092Z,22.20
2024-01-15T16:23:23.282Z,23.50
2024-01-15T16:23:38.640Z,21.40
2024-01-15T16:24:51.220Z,23.50
2024-01-15T16:27:24.657Z,24.50
2024-01-15T16:29:53.736Z,23.90
2024-01-15T16:32:22.371Z,24.30
2024-01-15T16:34:51.210Z,25.40
2024-01-15T16:37:19.872Z,26.10
2024-01-15T16:39:51.951Z,23.30
2024-01-15T16:42:22.059Z,25.30
2024-01-15T16:44:51.123Z,21.80
2024-01-15T16:47:22.304Z,23.80
2024-01-15T16:49:52.304Z,22.80
2024-01-15T16:52:21.235Z,25.60
2024-01-15T16:54:49.959Z,24.70
2024-01-15T16:57:18.735Z,26.30
2024-01-15T16:59:47.948Z,28.20
2024-01-15T17:02:16.694Z,25.60
2024-01-15T17:04:48.438Z,22.70
2024-01-15T17:07:18.065Z,26.50
2024-01-15T17:09:46.608Z,26.20
2024-01-15T17:12:15.174Z,25.60
2024-01-15T17:14:43.860Z,26.90
2024-01-15T17:17:12.583Z,29.50
2024-01-15T17:19:45.479Z,29.10
2024-01-15T17:22:15.505Z,26.70
2024-01-15T17:24:44.040Z,27.00
2024-01-15T17:27:12.611Z,28.90
2024-01-15T17:29:41.922Z,29.50
2024-01-15T17:32:10.778Z,31.50
2024-01-15T17:34:40.131Z,32.40
2024-01-15T17:37:08.788Z,29.20
2024-01-15T17:39:37.801Z,35.00
2024-01-15T17:42:09.558Z,28.60
2024-01-15T17:44:38.190Z,32.60
2024-01-15T17:47:07.103Z,28.60
2024-01-15T17:49:35.727Z,32.30
2024-01-15T17:52:05.295Z,32.00
2024-01-15T17:54:34.283Z,30.80
2024-01-15T17:57:03.023Z,30.70
2024-01-15T17:59:31.963Z,29.60
2024-01-15T18:02:01.394Z,29.50
2024-01-15T18:04:30.032Z,28.10
2024-01-15T18:06:58.556Z,30.50
2024-01-15T18:09:27.027Z,30.30
2024-01-15T18:12:00.219Z,30.80
2024-01-15T18:14:29.858Z,38.40
2024-01-15T18:16:58.521Z,43.80
2024-01-15T18:19:27.140Z,50.40
2024-01-15T18:21:55.673Z,43.10
2024-01-15T18:24:26.481Z,43.10
2024-01-15T18:26:55.096Z,43.40
2024-01-15T18:29:25.265Z,45.10
2024-01-15T18:31:54.053Z,36.50
2024-01-15T18:34:22.584Z,33.30
2024-01-15T18:36:52.719Z,20.00
2024-01-15T18:39:21.161Z,11.20
2024-01-15T18:41:49.674Z,10.50
2024-01-15T18:44:18.421Z,8.70
2024-01-15T18:46:47.156Z,5.10
2024-01-15T18:49:17.876Z,3.30
2024-01-15T18:51:47.406Z,2.30
2024-01-15T18:54:16.644Z,2.10
2024-01-15T18:56:45.798Z,2.20
2024-01-15T18:59:14.583Z,1.50
2024-01-15T19:01:44.574Z,2.60
2024-01-15T19:04:13.559Z,1.70
2024-01-15T19:06:43.172Z,2.90
2024-01-15T19:09:12.716Z,2.20
2024-01-15T19:11:45.934Z,1.00
2024-01-15T19:14:17.694Z,3.00
2024-01-15T19:16:47.727Z,1.20
2024-01-15T19:19:16.713Z,1.20
2024-01-15T19:21:47.518Z,1.10
2024-01-15T19:24:17.398Z,1.20
2024-01-15T19:26:46.621Z,1.10
2024-01-15T19:29:17.769Z,1.80
2024-01-15T19:31:46.224Z,1.70
2024-01-15T19:34:14.933Z,1.70
2024-01-15T19:36:45.867Z,2.30
2024-01-15T19:39:14.359Z,2.40
2024-01-15T19:41:43.620Z,2.00
2024-01-15T19:44:12.082Z,1.50
2024-01-15T19:46:41.458Z,1.60
2024-01-15T19:49:15.610Z,1.70
2024-01-15T19:51:44.821Z,1.30
2024-01-15T19:54:13.632Z,1.50
2024-01-15T19:56:42.311Z,1.70
2024-01-15T19:59:11.048Z,2.70
2024-01-15T20:01:41.977Z,2.00
2024-01-15T20:04:14.495Z,1.70
2024-01-15T20:06:43.440Z,2.20
2024-01-15T20:09:18.037Z,2.00
2024-01-15T20:11:47.194Z,1.40
2024-01-15T20:14:20.443Z,1.70
2024-01-15T20:16:49.057Z,1.50
2024-01-15T20:19:28.674Z,2.10
2024-01-15T20:21:57.748Z,1.40
2024-01-15T20:24:27.597Z,1.80
2024-01-15T20:26:59.029Z,1.40
2024-01-15T20:29:30.264Z,1.60
2024-01-15T20:31:59.341Z,1.20
2024-01-15T20:34:28.617Z,1.20
2024-01-15T20:36:58.272Z,1.80
2024-01-15T20:39:27.140Z,1.80
2024-01-15T20:41:55.944Z,3.30
2024-01-15T20:44:25.932Z,11.40
2024-01-15T20:46:56.937Z,6.60
2024-01-15T20:49:27.316Z,4.90
2024-01-15T20:51:55.918Z,3.70
2024-01-15T20:54:24.544Z,4.50
2024-01-15T20:56:53.241Z,4.70
2024-01-15T20:59:21.882Z,5.70
2024-01-15T21:01:53.305Z,3.60
2024-01-15T21:04:23.441Z,3.00
2024-01-15T21:06:57.397Z,3.50
2024-01-15T21:09:29.112Z,5.70
2024-01-15T21:11:57.725Z,4.10
2024-01-15T21:14:26.338Z,3.40
2024-01-15T21:16:54.872Z,3.70
2024-01-15T21:19:24.434Z,3.90
2024-01-15T21:21:58.226Z,4.70
2024-01-15T21:24:29.183Z,3.40
2024-01-15T21:27:00.977Z,5.00
2024-01-15T21:29:29.624Z,3.80
2024-01-15T21:32:04.055Z,4.30
2024-01-15T21:34:37.352Z,4.30
2024-01-15T21:37:08.878Z,3.90
2024-01-15T21:39:38.592Z,4.60
2024-01-15T21:42:07.386Z,5.20
2024-01-15T21:44:39.177Z,4.60
2024-01-15T21:47:08.478Z,4.10
2024-01-15T21:49:40.150Z,3.80
2024-01-15T21:52:11.575Z,6.10
2024-01-15T21:54:40.140Z,4.30
2024-01-15T21:57:09.137Z,4.20
2024-01-15T21:59:38.043Z,3.20
2024-01-15T22:02:10.099Z,3.50
2024-01-15T22:04:38.976Z,2.40
2024-01-15T22:07:10.676Z,4.10
2024-01-15T22:09:42.065Z,4.00
2024-01-15T22:12:11.429Z,3.00
2024-01-15T22:14:40.125Z,3.10
2024-01-15T22:17:08.721Z,3.00
2024-01-15T22:19:37.402Z,3.60
2024-01-15T22:22:10.516Z,3.60
2024-01-15T22:24:39.864Z,12.00
2024-01-15T22:27:08.550Z,4.50
2024-01-15T22:29:37.752Z,5.70
2024-01-15T22:32:06.584Z,3.80
2024-01-15T22:34:35.474Z,4.90
2024-01-15T22:37:06.026Z,3.60
2024-01-15T22:39:34.733Z,3.70
2024-01-15T22:42:03.355Z,4.80
2024-01-15T22:44:31.993Z,3.30
2024-01-15T22:47:00.851Z,4.10
2024-01-15T22:49:29.569Z,4.40
2024-01-15T22:51:58.259Z,3.50
2024-01-15T22:54:27.110Z,3.90
2024-01-15T22:56:55.819Z,2.90
2024-01-15T22:59:26.818Z,3.10
2024-01-15T23:01:55.349Z,2.20
2024-01-15T23:04:23.914Z,1.90
2024-01-15T23:06:55.001Z,1.70
2024-01-15T23:09:27.254Z,2.30
2024-01-15T23:11:55.783Z,1.80
2024-01-15T23:14:24.328Z,2.70
2024-01-15T23:16:55.642Z,1.50
2024-01-15T23:19:24.265Z,2.50
2024-01-15T23:21:53.560Z,1.90
2024-01-15T23:24:22.094Z,2.30
2024-01-15T23:26:55.328Z,1.60
2024-01-15T23:29:23.995Z,3.40
2024-01-15T23:31:52.597Z,2.00
2024-01-15T23:34:21.213Z,2.70
2024-01-15T23:36:53.583Z,2.10
2024-01-15T23:39:22.998Z,1.90
2024-01-15T23:41:53.051Z,2.70
2024-01-15T23:44:21.734Z,2.40
2024-01-15T23:46:53.520Z,1.70
2024-01-15T23:49:24.565Z,2.50
2024-01-15T23:51:54.061Z,2.40
2024-01-15T23:54:22.608Z,2.30
2024-01-15T23:56:53.429Z,4.00
2024-01-15T23:59:22.163Z,3.10
